• Join FlightAware (Why Join?)
  • Login
  • US Flag 
07:31AM EST


 

Airport Tracker/Info


-or-


 

Live Flight TrackerFlight Track Log ✈ SWA3943 ✈ 11-Apr-2013 ✈ KPHL - KMDW

Flight Track Log - Related Links

Times and Time Zones

All times are in EDT time to prevent confusion due to time zone crossing. See the SWA3943 flight status page for this flight to view local times or setup timezone preferences in your user account.

Time Position Orientation Groundspeed Altitude Reporting Facility
EDT Latitude Longitude Course Direction KTS MPH feet Rate Location/Type
09:48AM 39.8578 -75.2903 256° West 170 196 1,100  Level FAA TRACON SMA TRACON (SMA)
09:49AM 39.8536 -75.3119 256° West 178 205 1,700 1,440 Climbing FAA TRACON SMA TRACON (SMA)
09:49AM 39.8494 -75.3333 256° West 192 221 2,100 1,920 Climbing FAA TRACON SMA TRACON (SMA)
09:49AM 39.8450 -75.3589 257° West 225 259 3,000 2,880 Climbing FAA TRACON SMA TRACON (SMA)
09:50AM 39.8386 -75.3881 254° West 225 259 4,000 2,340 Climbing FAA TRACON SMA TRACON (SMA)
09:50AM 39.8383 -75.4144 269° West 253 291 4,600 1,920 Climbing FAA TRACON SMA TRACON (SMA)
09:50AM 39.8517 -75.4378 307° West 276 318 5,300 3,360 Climbing FAA TRACON SMA TRACON (SMA)
09:51AM 39.8781 -75.4539 335° Northwest 269 310 6,800 3,900 Climbing FAA TRACON SMA TRACON (SMA)
09:51AM 39.9014 -75.4600 349° North 271 312 7,900 3,000 Climbing FAA TRACON SMA TRACON (SMA)
09:51AM 39.9231 -75.4681 344° North 272 313 8,800 2,520 Climbing FAA TRACON SMA TRACON (SMA)
09:52AM 39.9467 -75.4756 346° North 273 314 9,600 2,100 Climbing FAA TRACON SMA TRACON (SMA)
09:52AM 39.9778 -75.4861 345° North 304 350 10,200 1,500 Climbing FAA TRACON SMA TRACON (SMA)
09:52AM 40.0039 -75.4947 346° North 326 375 10,600 900 Climbing FAA TRACON SMA TRACON (SMA)
09:53AM 40.0328 -75.5036 347° North 352 405 10,800 1,500 Climbing FAA TRACON SMA TRACON (SMA)
09:53AM 40.0694 -75.5142 348° North 358 412 11,600 2,520 Climbing FAA TRACON SMA TRACON (SMA)
09:53AM 40.1000 -75.5231 347° North 361 415 12,500 2,100 Climbing FAA TRACON SMA TRACON (SMA)
09:54AM 40.1314 -75.5325 347° North 365 420 13,000 720 Climbing FAA TRACON SMA TRACON (SMA)
09:54AM 40.1714 -75.5447 347° North 381 438 13,000  Level FAA TRACON SMA TRACON (SMA)
09:54AM 40.2033 -75.5553 346° North 381 438 13,000 1,020 Level FAA TRACON SMA TRACON (SMA)
09:55AM 40.2297 -75.5764 329° Northwest 357 411 13,700 3,000 Climbing FAA TRACON SMA TRACON (SMA)
09:55AM 40.2553 -75.6089 316° Northwest 342 394 15,000 3,000 Climbing FAA TRACON SMA TRACON (SMA)
09:55AM 40.2747 -75.6392 310° West 341 392 15,700 1,800 Climbing FAA TRACON SMA TRACON (SMA)
09:56AM 40.2939 -75.6686 310° West 344 396 16,200 1,620 Climbing FAA TRACON SMA TRACON (SMA)
09:56AM 40.3189 -75.7061 311° West 352 405 16,800 1,200 Climbing FAA TRACON SMA TRACON (SMA)
09:56AM 40.3394 -75.7372 311° West 363 418 17,000 900 Climbing FAA TRACON SMA TRACON (SMA)
09:57AM 40.3650 -75.7753 311° West 370 426 17,400 1,500 Climbing FAA TRACON SMA TRACON (SMA)
09:57AM 40.3758 -75.7914 311° West 369 425 18,000 2,220 Climbing FAA TRACON SMA TRACON (SMA)
09:58AM 40.4247 -75.8639 312° West 360 414 19,600 1,680 Climbing New York Center
09:59AM 40.4550 -75.9781 289° West 353 406 20,800 1,140 Climbing New York Center
10:00AM 40.4739 -76.1158 280° West 368 423 21,900 1,320 Climbing New York Center
10:01AM 40.4944 -76.2594 281° West 381 438 23,500 1,380 Climbing New York Center
10:02AM 40.5147 -76.4031 281° West 394 453 24,800 1,260 Climbing New York Center
10:03AM 40.5367 -76.5550 281° West 412 474 26,100 1,620 Climbing New York Center
10:04AM 40.5589 -76.6961 282° West 411 473 28,000 1,620 Climbing New York Center
10:05AM 40.5806 -76.8431 281° West 411 473 29,400 1,380 Climbing New York Center
10:06AM 40.6022 -76.9869 281° West 411 473 30,800 1,260 Climbing New York Center
10:07AM 40.6217 -77.1311 280° West 411 473 32,000 540 Climbing New York Center
10:08AM 40.6431 -77.2753 281° West 411 473 32,000  Level New York Center
10:09AM 40.6644 -77.4169 281° West 411 473 32,000  Level New York Center
10:10AM 40.7019 -77.6992 280° West 403 464 32,000  Level Cleveland Center
10:11AM 40.7203 -77.8433 280° West 403 464 32,000  Level Cleveland Center
10:12AM 40.7403 -77.9850 281° West 398 458 32,000  Level Cleveland Center
10:13AM 40.7578 -78.1269 279° West 398 458 32,000  Level Cleveland Center
10:14AM 40.7775 -78.2717 280° West 398 458 32,000  Level Cleveland Center
10:15AM 40.7950 -78.4164 279° West 403 464 32,000  Level Cleveland Center
10:16AM 40.8122 -78.5611 279° West 408 470 32,000  Level Cleveland Center
10:17AM 40.8314 -78.7089 280° West 408 470 32,000  Level Cleveland Center
10:18AM 40.8506 -78.8539 280° West 408 470 32,000  Level Cleveland Center
10:19AM 40.8711 -78.9822 282° West 408 470 32,000  Level Cleveland Center
10:20AM 40.8897 -79.1247 280° West 408 470 32,000  Level Cleveland Center
10:21AM 40.9058 -79.2644 279° West 408 470 32,000  Level Cleveland Center
10:22AM 40.9242 -79.4069 280° West 408 470 32,000  Level Cleveland Center
10:23AM 40.9403 -79.5525 278° West 403 464 32,000  Level Cleveland Center
10:24AM 40.9581 -79.6950 279° West 403 464 32,000  Level Cleveland Center
10:25AM 40.9736 -79.8350 278° West 403 464 32,000  Level Cleveland Center
10:26AM 40.9911 -79.9778 279° West 403 464 32,000  Level Cleveland Center
10:27AM 41.0064 -80.1236 278° West 403 464 32,000  Level Cleveland Center
10:28AM 41.0214 -80.2639 278° West 398 458 32,000  Level Cleveland Center
10:29AM 41.0386 -80.4097 279° West 398 458 32,000  Level Cleveland Center
10:30AM 41.0553 -80.5556 279° West 398 458 32,000  Level Cleveland Center
10:31AM 41.0719 -80.6989 279° West 398 458 32,000  Level Cleveland Center
10:32AM 41.0861 -80.8419 278° West 398 458 32,000  Level Cleveland Center
10:33AM 41.1025 -80.9856 279° West 398 458 32,000  Level Cleveland Center
10:34AM 41.1186 -81.1317 278° West 398 458 32,000  Level Cleveland Center
10:35AM 41.1344 -81.2750 278° West 403 464 32,000  Level Cleveland Center
10:36AM 41.1481 -81.4214 277° West 409 471 32,000  Level Cleveland Center
10:37AM 41.1636 -81.5678 278° West 404 465 32,000  Level Cleveland Center
10:38AM 41.1789 -81.7142 278° West 404 465 32,000  Level Cleveland Center
10:39AM 41.1939 -81.8606 278° West 409 471 32,000  Level Cleveland Center
10:40AM 41.2092 -82.0017 278° West 404 465 32,000  Level Cleveland Center
10:41AM 41.2172 -82.1622 274° West 404 465 32,000  Level Cleveland Center
10:42AM 41.2319 -82.3061 278° West 404 465 32,000  Level Cleveland Center
10:43AM 41.2442 -82.4528 277° West 404 465 32,000  Level Cleveland Center
10:44AM 41.2441 -82.4475 277° West  Level FlightAware Approximate
10:44AM 41.2564 -82.5967 276° West 404 465 32,000  Level Cleveland Center
10:45AM 41.2706 -82.7381 278° West 404 465 32,000  Level Cleveland Center
10:46AM 41.2844 -82.8794 277° West 404 465 32,000  Level Cleveland Center
10:47AM 41.2961 -83.0208 276° West 399 459 32,000  Level Cleveland Center
10:48AM 41.3075 -83.1622 276° West 394 453 32,000  Level Cleveland Center
10:49AM 41.3231 -83.3067 278° West 394 453 32,000 -60 Level Cleveland Center
10:50AM 41.3319 -83.4481 275° West 389 448 31,900  Descending Cleveland Center
10:51AM 41.3450 -83.5897 277° West 389 448 32,000  Climbing Cleveland Center
10:52AM 41.3581 -83.7314 277° West 389 448 32,000  Level Cleveland Center
10:53AM 41.3686 -83.8703 276° West 389 448 32,000  Level Cleveland Center
10:56AM 41.3964 -84.1747 277° West 387 445 32,000  Level Chicago Center
10:57AM 41.4097 -84.3447 276° West 386 444 32,000 -300 Level Chicago Center
10:58AM 41.4206 -84.4864 276° West 385 443 31,500 -1,020 Descending Chicago Center
10:59AM 41.4306 -84.6275 275° West 383 441 30,000 -720 Descending Chicago Center
11:00AM 41.4403 -84.7667 275° West 379 436 30,000  Level Chicago Center
11:01AM 41.4508 -84.9089 276° West 384 442 30,000  Level Chicago Center
11:02AM 41.4603 -85.0528 275° West 388 447 30,000 -840 Level Chicago Center
11:03AM 41.4703 -85.1950 275° West 386 444 28,400 -2,100 Descending Chicago Center
11:04AM 41.4803 -85.3572 275° West 363 418 25,700 -2,280 Descending Chicago Center
11:05AM 41.4894 -85.4886 275° West 352 405 23,800 -1,560 Descending Chicago Center
11:06AM 41.4978 -85.6106 275° West 326 375 22,600 -1,080 Descending Chicago Center
11:07AM 41.5058 -85.7281 275° West 317 365 21,600 -1,080 Descending Chicago Center
11:08AM 41.5131 -85.8428 275° West 310 357 20,500 -1,500 Descending Chicago Center
11:09AM 41.5200 -85.9553 275° West 306 352 18,600 -1,920 Descending Chicago Center
11:10AM 41.5247 -86.0644 273° West 297 342 16,600 -1,980 Descending Chicago Center
11:11AM 41.5233 -86.1825 269° West 317 365 14,600 -1,980 Descending Chicago Center
11:12AM 41.5231 -86.2956 270° West 309 356 12,600 -1,560 Descending Chicago Center
11:13AM 41.5222 -86.4097 269° West 309 356 11,500 -1,140 Descending Chicago Center
11:14AM 41.5206 -86.5506 269° West 319 367 10,300 -780 Descending Chicago Center
11:15AM 41.5200 -86.6628 270° West 306 352 10,000 -180 Descending Chicago Center
11:16AM 41.5200 -86.7747 270° West 297 342 10,000  Level Chicago Center
11:17AM 41.5178 -86.8803 268° West 288 331 10,000 -660 Level Chicago Center
11:18AM 41.5181 -86.9836 270° West 282 325 8,700 -1,440 Descending Chicago Center
11:19AM 41.5161 -87.0850 269° West 277 319 7,100 -1,740 Descending Chicago Center
11:20AM 41.5167 -87.1500 271° West 268 308 6,000 -840 Descending Chicago TRACON
11:21AM 41.5167 -87.2500 270° West 251 289 5,800 -600 Descending Chicago TRACON
11:22AM 41.5167 -87.3333 270° West 262 302 4,900 -960 Descending Chicago TRACON
11:22AM 41.5203 -87.3900 275° West 258 297 4,400 -600 Descending Chicago Center
11:24AM 41.5403 -87.4839 286° West 262 302 4,000 -180 Descending Chicago Center
11:25AM 41.5564 -87.5747 283° West 259 298 4,100 -420 Climbing Chicago Center
11:26AM 41.5728 -87.6675 283° West 258 297 3,200 -540 Descending Chicago Center
11:27AM 41.5906 -87.7611 284° West 260 299 3,000 -360 Descending Chicago Center
11:28AM 41.6394 -87.8564 304° West 267 307 2,500 -420 Descending Chicago Center
11:28AM 41.6500 -87.8667 324° Northwest 260 299 2,500 -120 Level Chicago TRACON
11:29AM 41.7167 -87.8500 11° North 244 281 2,400 -540 Descending Chicago TRACON
11:30AM 41.7500 -87.8000 48° Northeast 189 217 1,500 -1,020 Descending Chicago TRACON